sensor_id;sensor_type;location;lat;lon;timestamp;temperature;humidity
13203;DHT22;6666;51.626;7.530;2023-10-09T00:00:13;12.00;99.90
13203;DHT22;6666;51.626;7.530;2023-10-09T00:03:10;12.00;99.90
13203;DHT22;6666;51.626;7.530;2023-10-09T00:05:39;12.00;99.90
13203;DHT22;6666;51.626;7.530;2023-10-09T00:08:15;12.00;99.90
13203;DHT22;6666;51.626;7.530;2023-10-09T00:10:49;12.00;99.90
13203;DHT22;6666;51.626;7.530;2023-10-09T00:13:21;11.90;99.90
13203;DHT22;6666;51.626;7.530;2023-10-09T00:15:56;11.90;99.90
13203;DHT22;6666;51.626;7.530;2023-10-09T00:18:29;11.90;99.90
13203;DHT22;6666;51.626;7.530;2023-10-09T00:20:57;11.80;99.90
13203;DHT22;6666;51.626;7.530;2023-10-09T00:23:38;11.80;99.90
13203;DHT22;6666;51.626;7.530;2023-10-09T00:26:06;11.80;99.90
13203;DHT22;6666;51.626;7.530;2023-10-09T00:28:46;11.80;99.90
13203;DHT22;6666;51.626;7.530;2023-10-09T00:31:14;11.90;99.90
13203;DHT22;6666;51.626;7.530;2023-10-09T00:33:45;11.90;99.90
13203;DHT22;6666;51.626;7.530;2023-10-09T00:47:35;12.10;99.90
13203;DHT22;6666;51.626;7.530;2023-10-09T00:50:10;12.20;99.90
13203;DHT22;6666;51.626;7.530;2023-10-09T00:52:51;12.20;99.90
13203;DHT22;6666;51.626;7.530;2023-10-09T00:55:28;12.30;99.90
13203;DHT22;6666;51.626;7.530;2023-10-09T00:58:12;12.30;99.90
13203;DHT22;6666;51.626;7.530;2023-10-09T01:00:41;12.20;99.90
13203;DHT22;6666;51.626;7.530;2023-10-09T01:03:19;12.20;99.90
13203;DHT22;6666;51.626;7.530;2023-10-09T01:05:51;12.30;99.90
13203;DHT22;6666;51.626;7.530;2023-10-09T01:08:19;12.20;99.90
13203;DHT22;6666;51.626;7.530;2023-10-09T01:10:56;12.30;99.90
13203;DHT22;6666;51.626;7.530;2023-10-09T01:13:26;12.30;99.90
13203;DHT22;6666;51.626;7.530;2023-10-09T01:16:06;12.30;99.90
13203;DHT22;6666;51.626;7.530;2023-10-09T01:18:35;12.40;99.90
13203;DHT22;6666;51.626;7.530;2023-10-09T01:21:09;12.50;99.90
13203;DHT22;6666;51.626;7.530;2023-10-09T01:23:41;12.50;99.90
13203;DHT22;6666;51.626;7.530;2023-10-09T01:26:30;12.60;99.90
13203;DHT22;6666;51.626;7.530;2023-10-09T01:29:01;12.60;99.90
13203;DHT22;6666;51.626;7.530;2023-10-09T01:31:30;12.70;99.90
13203;DHT22;6666;51.626;7.530;2023-10-09T01:34:04;12.80;99.90
13203;DHT22;6666;51.626;7.530;2023-10-09T01:36:37;12.80;99.90
13203;DHT22;6666;51.626;7.530;2023-10-09T01:39:07;12.80;99.90
13203;DHT22;6666;51.626;7.530;2023-10-09T01:41:48;12.80;99.90
13203;DHT22;6666;51.626;7.530;2023-10-09T01:44:18;12.90;99.90
13203;DHT22;6666;51.626;7.530;2023-10-09T01:46:47;12.90;99.90
13203;DHT22;6666;51.626;7.530;2023-10-09T01:49:20;13.00;99.90
13203;DHT22;6666;51.626;7.530;2023-10-09T01:51:56;13.00;99.90
13203;DHT22;6666;51.626;7.530;2023-10-09T01:54:30;13.00;99.90
13203;DHT22;6666;51.626;7.530;2023-10-09T01:57:04;13.00;99.90
13203;DHT22;6666;51.626;7.530;2023-10-09T01:59:39;13.10;99.90
13203;DHT22;6666;51.626;7.530;2023-10-09T02:02:11;13.00;99.90
13203;DHT22;6666;51.626;7.530;2023-10-09T02:04:54;13.10;99.90
13203;DHT22;6666;51.626;7.530;2023-10-09T02:07:34;13.10;99.90
13203;DHT22;6666;51.626;7.530;2023-10-09T02:10:11;13.30;99.90
13203;DHT22;6666;51.626;7.530;2023-10-09T02:12:52;13.40;99.90
13203;DHT22;6666;51.626;7.530;2023-10-09T02:15:25;13.60;99.90
13203;DHT22;6666;51.626;7.530;2023-10-09T02:18:21;13.70;99.90
13203;DHT22;6666;51.626;7.530;2023-10-09T02:21:07;13.80;99.90
13203;DHT22;6666;51.626;7.530;2023-10-09T02:23:42;13.90;99.90
13203;DHT22;6666;51.626;7.530;2023-10-09T02:26:18;14.00;99.90
13203;DHT22;6666;51.626;7.530;2023-10-09T02:28:53;14.10;99.90
13203;DHT22;6666;51.626;7.530;2023-10-09T02:31:28;14.20;99.90
13203;DHT22;6666;51.626;7.530;2023-10-09T02:34:04;14.30;99.90
13203;DHT22;6666;51.626;7.530;2023-10-09T02:36:34;14.30;99.90
13203;DHT22;6666;51.626;7.530;2023-10-09T02:39:05;14.40;99.90
13203;DHT22;6666;51.626;7.530;2023-10-09T02:41:35;14.50;99.90
13203;DHT22;6666;51.626;7.530;2023-10-09T02:44:16;14.50;99.90
13203;DHT22;6666;51.626;7.530;2023-10-09T02:46:51;14.60;99.90
13203;DHT22;6666;51.626;7.530;2023-10-09T02:49:25;14.60;99.90
13203;DHT22;6666;51.626;7.530;2023-10-09T02:51:55;14.60;99.90
13203;DHT22;6666;51.626;7.530;2023-10-09T02:54:23;14.70;99.90
13203;DHT22;6666;51.626;7.530;2023-10-09T02:57:03;14.70;99.90
13203;DHT22;6666;51.626;7.530;2023-10-09T02:59:35;14.80;99.90
13203;DHT22;6666;51.626;7.530;2023-10-09T03:02:11;14.80;99.90
13203;DHT22;6666;51.626;7.530;2023-10-09T03:04:42;14.80;99.90
13203;DHT22;6666;51.626;7.530;2023-10-09T03:07:11;14.90;99.90
13203;DHT22;6666;51.626;7.530;2023-10-09T03:09:41;14.80;99.90
13203;DHT22;6666;51.626;7.530;2023-10-09T03:12:09;14.90;99.90
13203;DHT22;6666;51.626;7.530;2023-10-09T03:14:39;14.90;99.90
13203;DHT22;6666;51.626;7.530;2023-10-09T03:17:09;15.00;99.90
13203;DHT22;6666;51.626;7.530;2023-10-09T03:19:39;15.00;99.90
13203;DHT22;6666;51.626;7.530;2023-10-09T03:22:09;15.00;99.90
13203;DHT22;6666;51.626;7.530;2023-10-09T03:24:39;15.10;99.90
13203;DHT22;6666;51.626;7.530;2023-10-09T03:27:08;15.00;99.90
13203;DHT22;6666;51.626;7.530;2023-10-09T03:29:36;15.10;99.90
13203;DHT22;6666;51.626;7.530;2023-10-09T03:32:05;15.20;99.90
13203;DHT22;6666;51.626;7.530;2023-10-09T03:34:33;15.20;99.90
13203;DHT22;6666;51.626;7.530;2023-10-09T03:37:01;15.20;99.90
13203;DHT22;6666;51.626;7.530;2023-10-09T03:39:34;15.10;99.90
13203;DHT22;6666;51.626;7.530;2023-10-09T03:42:05;15.20;99.90
13203;DHT22;6666;51.626;7.530;2023-10-09T03:44:38;15.20;99.90
13203;DHT22;6666;51.626;7.530;2023-10-09T03:47:10;15.10;99.90
13203;DHT22;6666;51.626;7.530;2023-10-09T03:49:39;15.10;99.90
13203;DHT22;6666;51.626;7.530;2023-10-09T03:52:07;15.20;99.90
13203;DHT22;6666;51.626;7.530;2023-10-09T03:54:37;15.20;99.90
13203;DHT22;6666;51.626;7.530;2023-10-09T03:57:06;15.20;99.90
13203;DHT22;6666;51.626;7.530;2023-10-09T03:59:34;15.20;99.90
13203;DHT22;6666;51.626;7.530;2023-10-09T04:02:04;15.20;99.90
13203;DHT22;6666;51.626;7.530;2023-10-09T04:04:32;15.20;99.90
13203;DHT22;6666;51.626;7.530;2023-10-09T04:07:00;15.10;99.90
13203;DHT22;6666;51.626;7.530;2023-10-09T04:09:29;15.10;99.90
13203;DHT22;6666;51.626;7.530;2023-10-09T04:12:08;15.20;99.90
13203;DHT22;6666;51.626;7.530;2023-10-09T04:14:56;15.20;99.90
13203;DHT22;6666;51.626;7.530;2023-10-09T04:17:28;15.20;99.90
13203;DHT22;6666;51.626;7.530;2023-10-09T04:20:04;15.20;99.90
13203;DHT22;6666;51.626;7.530;2023-10-09T04:22:49;15.20;99.90
13203;DHT22;6666;51.626;7.530;2023-10-09T04:25:18;15.20;99.90
13203;DHT22;6666;51.626;7.530;2023-10-09T04:27:57;15.20;99.90
13203;DHT22;6666;51.626;7.530;2023-10-09T04:30:36;15.20;99.90
13203;DHT22;6666;51.626;7.530;2023-10-09T04:33:07;15.20;99.90
13203;DHT22;6666;51.626;7.530;2023-10-09T04:35:55;15.20;99.90
13203;DHT22;6666;51.626;7.530;2023-10-09T04:38:41;15.10;99.90
13203;DHT22;6666;51.626;7.530;2023-10-09T04:41:28;15.10;99.90
13203;DHT22;6666;51.626;7.530;2023-10-09T04:44:03;15.10;99.90
13203;DHT22;6666;51.626;7.530;2023-10-09T04:46:47;15.10;99.90
13203;DHT22;6666;51.626;7.530;2023-10-09T04:49:45;15.20;99.90
13203;DHT22;6666;51.626;7.530;2023-10-09T04:52:28;15.10;99.90
13203;DHT22;6666;51.626;7.530;2023-10-09T04:55:14;15.10;99.90
13203;DHT22;6666;51.626;7.530;2023-10-09T04:57:47;15.10;99.90
13203;DHT22;6666;51.626;7.530;2023-10-09T05:00:30;15.20;99.90
13203;DHT22;6666;51.626;7.530;2023-10-09T05:03:22;15.20;99.90
13203;DHT22;6666;51.626;7.530;2023-10-09T05:05:55;15.20;99.90
13203;DHT22;6666;51.626;7.530;2023-10-09T05:08:27;15.20;99.90
13203;DHT22;6666;51.626;7.530;2023-10-09T05:11:02;15.20;99.90
13203;DHT22;6666;51.626;7.530;2023-10-09T05:13:44;15.20;99.90
13203;DHT22;6666;51.626;7.530;2023-10-09T05:16:26;15.20;99.90
13203;DHT22;6666;51.626;7.530;2023-10-09T05:18:54;15.20;99.90
13203;DHT22;6666;51.626;7.530;2023-10-09T05:21:26;15.20;99.90
13203;DHT22;6666;51.626;7.530;2023-10-09T05:24:04;15.20;99.90
13203;DHT22;6666;51.626;7.530;2023-10-09T05:26:46;15.20;99.90
13203;DHT22;6666;51.626;7.530;2023-10-09T05:29:21;15.20;99.90
13203;DHT22;6666;51.626;7.530;2023-10-09T05:32:16;15.30;99.90
13203;DHT22;6666;51.626;7.530;2023-10-09T05:34:55;15.40;99.90
13203;DHT22;6666;51.626;7.530;2023-10-09T05:37:42;15.40;99.90
13203;DHT22;6666;51.626;7.530;2023-10-09T05:40:13;15.50;99.90
13203;DHT22;6666;51.626;7.530;2023-10-09T05:42:57;15.50;99.90
13203;DHT22;6666;51.626;7.530;2023-10-09T05:45:27;15.50;99.90
13203;DHT22;6666;51.626;7.530;2023-10-09T05:48:20;15.50;99.90
13203;DHT22;6666;51.626;7.530;2023-10-09T05:51:05;15.50;99.90
13203;DHT22;6666;51.626;7.530;2023-10-09T05:54:07;15.50;99.90
13203;DHT22;6666;51.626;7.530;2023-10-09T05:56:52;15.50;99.90
13203;DHT22;6666;51.626;7.530;2023-10-09T05:59:38;15.50;99.90
13203;DHT22;6666;51.626;7.530;2023-10-09T06:02:23;15.50;99.90
13203;DHT22;6666;51.626;7.530;2023-10-09T06:05:26;15.50;99.90
13203;DHT22;6666;51.626;7.530;2023-10-09T06:08:18;15.50;99.90
13203;DHT22;6666;51.626;7.530;2023-10-09T06:10:52;15.50;99.90
13203;DHT22;6666;51.626;7.530;2023-10-09T06:13:33;15.40;99.90
13203;DHT22;6666;51.626;7.530;2023-10-09T06:16:12;15.50;99.90
13203;DHT22;6666;51.626;7.530;2023-10-09T06:19:08;15.50;99.90
13203;DHT22;6666;51.626;7.530;2023-10-09T06:21:41;15.50;99.90
13203;DHT22;6666;51.626;7.530;2023-10-09T06:24:27;15.50;99.90
13203;DHT22;6666;51.626;7.530;2023-10-09T06:27:09;15.50;99.90
13203;DHT22;6666;51.626;7.530;2023-10-09T06:29:41;15.60;99.90
13203;DHT22;6666;51.626;7.530;2023-10-09T06:32:19;15.60;99.90
13203;DHT22;6666;51.626;7.530;2023-10-09T06:35:02;15.70;99.90
13203;DHT22;6666;51.626;7.530;2023-10-09T06:37:46;15.70;99.90
13203;DHT22;6666;51.626;7.530;2023-10-09T06:40:33;15.70;99.90
13203;DHT22;6666;51.626;7.530;2023-10-09T06:43:19;15.70;99.90
13203;DHT22;6666;51.626;7.530;2023-10-09T06:45:56;15.70;99.90
13203;DHT22;6666;51.626;7.530;2023-10-09T06:48:46;15.70;99.90
13203;DHT22;6666;51.626;7.530;2023-10-09T06:51:23;15.70;99.90
13203;DHT22;6666;51.626;7.530;2023-10-09T06:54:11;15.70;99.90
13203;DHT22;6666;51.626;7.530;2023-10-09T06:56:43;15.80;99.90
13203;DHT22;6666;51.626;7.530;2023-10-09T06:59:29;15.70;99.90
13203;DHT22;6666;51.626;7.530;2023-10-09T07:02:29;15.70;99.90
13203;DHT22;6666;51.626;7.530;2023-10-09T07:04:58;15.80;99.90
13203;DHT22;6666;51.626;7.530;2023-10-09T07:07:40;15.80;99.90
13203;DHT22;6666;51.626;7.530;2023-10-09T07:10:18;15.90;99.90
13203;DHT22;6666;51.626;7.530;2023-10-09T07:13:00;15.90;99.90
13203;DHT22;6666;51.626;7.530;2023-10-09T07:15:30;16.00;99.90
13203;DHT22;6666;51.626;7.530;2023-10-09T07:18:16;16.00;99.90
13203;DHT22;6666;51.626;7.530;2023-10-09T07:20:50;16.10;99.90
13203;DHT22;6666;51.626;7.530;2023-10-09T07:23:35;16.10;99.90
13203;DHT22;6666;51.626;7.530;2023-10-09T07:26:16;16.10;99.90
13203;DHT22;6666;51.626;7.530;2023-10-09T07:28:50;16.10;99.90
13203;DHT22;6666;51.626;7.530;2023-10-09T07:31:28;16.20;99.90
13203;DHT22;6666;51.626;7.530;2023-10-09T07:34:06;16.20;99.90
13203;DHT22;6666;51.626;7.530;2023-10-09T07:36:56;16.30;99.90
13203;DHT22;6666;51.626;7.530;2023-10-09T07:39:31;16.30;99.90
13203;DHT22;6666;51.626;7.530;2023-10-09T07:42:06;16.30;99.90
13203;DHT22;6666;51.626;7.530;2023-10-09T07:44:47;16.30;99.90
13203;DHT22;6666;51.626;7.530;2023-10-09T07:47:21;16.40;99.90
13203;DHT22;6666;51.626;7.530;2023-10-09T07:50:09;16.30;99.90
13203;DHT22;6666;51.626;7.530;2023-10-09T07:52:38;16.30;99.90
13203;DHT22;6666;51.626;7.530;2023-10-09T07:55:12;16.30;99.90
13203;DHT22;6666;51.626;7.530;2023-10-09T07:57:56;16.30;99.90
13203;DHT22;6666;51.626;7.530;2023-10-09T08:00:24;16.30;99.90
13203;DHT22;6666;51.626;7.530;2023-10-09T08:03:16;16.30;99.90
13203;DHT22;6666;51.626;7.530;2023-10-09T08:05:52;16.30;99.90
13203;DHT22;6666;51.626;7.530;2023-10-09T08:08:33;16.30;99.90
13203;DHT22;6666;51.626;7.530;2023-10-09T08:11:28;16.30;99.90
13203;DHT22;6666;51.626;7.530;2023-10-09T08:14:30;16.30;99.90
13203;DHT22;6666;51.626;7.530;2023-10-09T08:17:15;16.40;99.90
13203;DHT22;6666;51.626;7.530;2023-10-09T08:19:46;16.40;99.90
13203;DHT22;6666;51.626;7.530;2023-10-09T08:22:22;16.40;99.90
13203;DHT22;6666;51.626;7.530;2023-10-09T08:25:10;16.40;99.90
13203;DHT22;6666;51.626;7.530;2023-10-09T08:27:56;16.40;99.90
13203;DHT22;6666;51.626;7.530;2023-10-09T08:30:26;16.50;99.90
13203;DHT22;6666;51.626;7.530;2023-10-09T08:33:08;16.50;99.90
13203;DHT22;6666;51.626;7.530;2023-10-09T08:35:58;16.50;99.90
13203;DHT22;6666;51.626;7.530;2023-10-09T08:38:31;16.50;99.90
13203;DHT22;6666;51.626;7.530;2023-10-09T08:41:09;16.60;99.90
13203;DHT22;6666;51.626;7.530;2023-10-09T08:43:48;16.60;99.90
13203;DHT22;6666;51.626;7.530;2023-10-09T08:46:24;16.60;99.90
13203;DHT22;6666;51.626;7.530;2023-10-09T08:48:56;16.70;99.90
13203;DHT22;6666;51.626;7.530;2023-10-09T08:51:26;16.70;99.90
13203;DHT22;6666;51.626;7.530;2023-10-09T08:53:55;16.70;99.90
13203;DHT22;6666;51.626;7.530;2023-10-09T08:56:23;16.70;99.90
13203;DHT22;6666;51.626;7.530;2023-10-09T08:58:52;16.70;99.90
13203;DHT22;6666;51.626;7.530;2023-10-09T09:01:21;16.70;99.90
13203;DHT22;6666;51.626;7.530;2023-10-09T09:03:54;16.60;99.90
13203;DHT22;6666;51.626;7.530;2023-10-09T09:06:23;16.60;99.90
13203;DHT22;6666;51.626;7.530;2023-10-09T09:08:52;16.60;99.90
13203;DHT22;6666;51.626;7.530;2023-10-09T09:11:26;16.60;99.90
13203;DHT22;6666;51.626;7.530;2023-10-09T09:14:03;16.70;99.90
13203;DHT22;6666;51.626;7.530;2023-10-09T09:16:41;16.70;99.90
13203;DHT22;6666;51.626;7.530;2023-10-09T09:19:16;16.80;99.90
13203;DHT22;6666;51.626;7.530;2023-10-09T09:21:51;16.90;99.90
13203;DHT22;6666;51.626;7.530;2023-10-09T09:24:22;16.90;99.90
13203;DHT22;6666;51.626;7.530;2023-10-09T09:27:04;17.00;99.90
13203;DHT22;6666;51.626;7.530;2023-10-09T09:29:41;17.10;99.90
13203;DHT22;6666;51.626;7.530;2023-10-09T09:32:28;17.20;99.90
13203;DHT22;6666;51.626;7.530;2023-10-09T09:35:12;17.40;99.90
13203;DHT22;6666;51.626;7.530;2023-10-09T09:37:52;17.50;99.90
13203;DHT22;6666;51.626;7.530;2023-10-09T09:40:22;17.50;99.90
13203;DHT22;6666;51.626;7.530;2023-10-09T09:43:01;17.50;99.90
13203;DHT22;6666;51.626;7.530;2023-10-09T09:45:33;17.50;99.90
13203;DHT22;6666;51.626;7.530;2023-10-09T09:48:03;17.50;99.90
13203;DHT22;6666;51.626;7.530;2023-10-09T09:50:34;17.60;99.90
13203;DHT22;6666;51.626;7.530;2023-10-09T09:53:10;17.70;99.90
13203;DHT22;6666;51.626;7.530;2023-10-09T09:55:48;17.70;99.90
13203;DHT22;6666;51.626;7.530;2023-10-09T09:58:23;17.80;99.90
13203;DHT22;6666;51.626;7.530;2023-10-09T10:01:01;17.90;99.90
13203;DHT22;6666;51.626;7.530;2023-10-09T10:03:38;18.00;99.90
13203;DHT22;6666;51.626;7.530;2023-10-09T10:06:12;18.00;99.90
13203;DHT22;6666;51.626;7.530;2023-10-09T10:08:48;18.00;99.90
13203;DHT22;6666;51.626;7.530;2023-10-09T10:11:42;18.10;99.90
13203;DHT22;6666;51.626;7.530;2023-10-09T10:14:11;18.20;99.90
13203;DHT22;6666;51.626;7.530;2023-10-09T10:17:05;18.20;99.90
13203;DHT22;6666;51.626;7.530;2023-10-09T10:20:04;18.20;99.90
13203;DHT22;6666;51.626;7.530;2023-10-09T10:22:48;18.10;99.90
13203;DHT22;6666;51.626;7.530;2023-10-09T10:25:34;18.10;99.90
13203;DHT22;6666;51.626;7.530;2023-10-09T10:28:18;18.10;99.90
13203;DHT22;6666;51.626;7.530;2023-10-09T10:30:56;18.10;99.90
13203;DHT22;6666;51.626;7.530;2023-10-09T10:33:27;18.20;99.90
13203;DHT22;6666;51.626;7.530;2023-10-09T10:36:19;18.20;99.90
13203;DHT22;6666;51.626;7.530;2023-10-09T10:39:01;18.20;99.90
13203;DHT22;6666;51.626;7.530;2023-10-09T10:41:32;18.20;99.90
13203;DHT22;6666;51.626;7.530;2023-10-09T10:44:04;18.30;99.90
13203;DHT22;6666;51.626;7.530;2023-10-09T10:46:46;18.20;99.90
13203;DHT22;6666;51.626;7.530;2023-10-09T10:49:19;18.30;99.90
13203;DHT22;6666;51.626;7.530;2023-10-09T10:51:49;18.30;99.90
13203;DHT22;6666;51.626;7.530;2023-10-09T10:54:30;18.40;99.90
13203;DHT22;6666;51.626;7.530;2023-10-09T10:57:35;18.40;99.90
13203;DHT22;6666;51.626;7.530;2023-10-09T11:00:20;18.50;99.90
13203;DHT22;6666;51.626;7.530;2023-10-09T11:03:06;18.60;99.90
13203;DHT22;6666;51.626;7.530;2023-10-09T11:05:47;18.70;99.90
13203;DHT22;6666;51.626;7.530;2023-10-09T11:08:24;18.80;99.90
13203;DHT22;6666;51.626;7.530;2023-10-09T11:11:12;18.80;99.90
13203;DHT22;6666;51.626;7.530;2023-10-09T11:13:43;18.80;99.90
13203;DHT22;6666;51.626;7.530;2023-10-09T11:16:24;18.80;99.90
13203;DHT22;6666;51.626;7.530;2023-10-09T11:19:10;18.80;99.90
13203;DHT22;6666;51.626;7.530;2023-10-09T11:21:51;18.80;99.90
13203;DHT22;6666;51.626;7.530;2023-10-09T11:24:27;18.90;99.90
13203;DHT22;6666;51.626;7.530;2023-10-09T11:27:01;18.90;99.90
13203;DHT22;6666;51.626;7.530;2023-10-09T11:29:33;19.00;99.90
13203;DHT22;6666;51.626;7.530;2023-10-09T11:32:16;19.00;99.90
13203;DHT22;6666;51.626;7.530;2023-10-09T11:34:50;18.90;99.90
13203;DHT22;6666;51.626;7.530;2023-10-09T11:37:22;19.00;99.90
13203;DHT22;6666;51.626;7.530;2023-10-09T11:40:27;19.00;99.90
13203;DHT22;6666;51.626;7.530;2023-10-09T11:43:01;19.00;99.90
13203;DHT22;6666;51.626;7.530;2023-10-09T11:45:30;19.00;99.90
13203;DHT22;6666;51.626;7.530;2023-10-09T11:48:17;19.00;99.90
13203;DHT22;6666;51.626;7.530;2023-10-09T11:50:55;18.90;99.90
13203;DHT22;6666;51.626;7.530;2023-10-09T11:53:44;19.00;99.90
13203;DHT22;6666;51.626;7.530;2023-10-09T11:56:13;19.00;99.90
13203;DHT22;6666;51.626;7.530;2023-10-09T11:58:46;19.10;99.90
13203;DHT22;6666;51.626;7.530;2023-10-09T12:01:17;19.00;99.90
13203;DHT22;6666;51.626;7.530;2023-10-09T12:03:48;19.10;99.90
13203;DHT22;6666;51.626;7.530;2023-10-09T12:06:19;19.10;99.90
13203;DHT22;6666;51.626;7.530;2023-10-09T12:08:50;19.10;99.90
13203;DHT22;6666;51.626;7.530;2023-10-09T12:11:18;19.10;99.90
13203;DHT22;6666;51.626;7.530;2023-10-09T12:13:52;19.00;99.90
13203;DHT22;6666;51.626;7.530;2023-10-09T12:16:23;19.00;99.90
13203;DHT22;6666;51.626;7.530;2023-10-09T12:18:55;19.10;99.90
13203;DHT22;6666;51.626;7.530;2023-10-09T12:21:24;19.20;99.90
13203;DHT22;6666;51.626;7.530;2023-10-09T12:23:55;19.30;99.90
13203;DHT22;6666;51.626;7.530;2023-10-09T12:26:28;19.30;99.90
13203;DHT22;6666;51.626;7.530;2023-10-09T12:29:03;19.30;99.90
13203;DHT22;6666;51.626;7.530;2023-10-09T12:31:37;19.20;99.90
13203;DHT22;6666;51.626;7.530;2023-10-09T12:34:05;19.30;99.90
13203;DHT22;6666;51.626;7.530;2023-10-09T12:36:35;19.30;99.90
13203;DHT22;6666;51.626;7.530;2023-10-09T12:39:04;19.30;99.90
13203;DHT22;6666;51.626;7.530;2023-10-09T12:41:33;19.20;99.90
13203;DHT22;6666;51.626;7.530;2023-10-09T12:44:04;19.30;99.90
13203;DHT22;6666;51.626;7.530;2023-10-09T12:46:32;19.30;99.90
13203;DHT22;6666;51.626;7.530;2023-10-09T12:49:05;19.20;99.90
13203;DHT22;6666;51.626;7.530;2023-10-09T12:51:33;19.20;99.90
13203;DHT22;6666;51.626;7.530;2023-10-09T12:54:01;19.20;99.90
13203;DHT22;6666;51.626;7.530;2023-10-09T12:56:29;19.20;99.90
13203;DHT22;6666;51.626;7.530;2023-10-09T12:59:06;19.30;99.90
13203;DHT22;6666;51.626;7.530;2023-10-09T13:01:34;19.40;99.90
13203;DHT22;6666;51.626;7.530;2023-10-09T13:04:10;19.40;99.90
13203;DHT22;6666;51.626;7.530;2023-10-09T13:06:40;19.30;99.90
13203;DHT22;6666;51.626;7.530;2023-10-09T13:09:11;19.40;99.90
13203;DHT22;6666;51.626;7.530;2023-10-09T13:11:40;19.30;99.90
13203;DHT22;6666;51.626;7.530;2023-10-09T13:14:11;19.30;99.90
13203;DHT22;6666;51.626;7.530;2023-10-09T13:16:45;19.30;99.90
13203;DHT22;6666;51.626;7.530;2023-10-09T13:19:14;19.30;99.90
13203;DHT22;6666;51.626;7.530;2023-10-09T13:21:42;19.30;99.90
13203;DHT22;6666;51.626;7.530;2023-10-09T13:24:11;19.30;99.90
13203;DHT22;6666;51.626;7.530;2023-10-09T13:26:42;19.30;99.90
13203;DHT22;6666;51.626;7.530;2023-10-09T13:29:14;19.30;99.90
13203;DHT22;6666;51.626;7.530;2023-10-09T13:31:49;19.30;99.90
13203;DHT22;6666;51.626;7.530;2023-10-09T13:34:19;19.20;99.90
13203;DHT22;6666;51.626;7.530;2023-10-09T13:36:47;19.20;99.90
13203;DHT22;6666;51.626;7.530;2023-10-09T13:39:20;19.20;99.90
13203;DHT22;6666;51.626;7.530;2023-10-09T13:41:52;19.20;99.90
13203;DHT22;6666;51.626;7.530;2023-10-09T13:44:29;19.10;99.90
13203;DHT22;6666;51.626;7.530;2023-10-09T13:46:58;19.10;99.90
13203;DHT22;6666;51.626;7.530;2023-10-09T13:49:27;19.10;99.90
13203;DHT22;6666;51.626;7.530;2023-10-09T13:51:59;19.10;99.90
13203;DHT22;6666;51.626;7.530;2023-10-09T13:54:29;19.10;99.90
13203;DHT22;6666;51.626;7.530;2023-10-09T13:57:06;19.00;99.90
13203;DHT22;6666;51.626;7.530;2023-10-09T13:59:39;19.00;99.90
13203;DHT22;6666;51.626;7.530;2023-10-09T14:02:10;19.00;99.90
13203;DHT22;6666;51.626;7.530;2023-10-09T14:04:45;19.00;99.90
13203;DHT22;6666;51.626;7.530;2023-10-09T14:07:15;19.10;99.90
13203;DHT22;6666;51.626;7.530;2023-10-09T14:09:44;19.10;99.90
13203;DHT22;6666;51.626;7.530;2023-10-09T14:12:22;19.10;99.90
13203;DHT22;6666;51.626;7.530;2023-10-09T14:14:53;19.10;99.90
13203;DHT22;6666;51.626;7.530;2023-10-09T14:17:22;19.10;99.90
13203;DHT22;6666;51.626;7.530;2023-10-09T14:19:53;19.10;99.90
13203;DHT22;6666;51.626;7.530;2023-10-09T14:22:23;19.00;99.90
13203;DHT22;6666;51.626;7.530;2023-10-09T14:24:54;19.00;99.90
13203;DHT22;6666;51.626;7.530;2023-10-09T14:27:24;19.00;99.90
13203;DHT22;6666;51.626;7.530;2023-10-09T14:29:56;19.00;99.90
13203;DHT22;6666;51.626;7.530;2023-10-09T14:32:27;18.90;99.90
13203;DHT22;6666;51.626;7.530;2023-10-09T14:35:01;18.90;99.90
13203;DHT22;6666;51.626;7.530;2023-10-09T14:37:30;18.80;99.90
13203;DHT22;6666;51.626;7.530;2023-10-09T14:39:59;18.80;99.90
13203;DHT22;6666;51.626;7.530;2023-10-09T14:42:28;18.80;99.90
13203;DHT22;6666;51.626;7.530;2023-10-09T14:44:57;18.80;99.90
13203;DHT22;6666;51.626;7.530;2023-10-09T14:47:25;18.80;99.90
13203;DHT22;6666;51.626;7.530;2023-10-09T14:49:53;18.80;99.90
13203;DHT22;6666;51.626;7.530;2023-10-09T14:52:28;18.80;99.90
13203;DHT22;6666;51.626;7.530;2023-10-09T14:54:56;18.80;99.90
13203;DHT22;6666;51.626;7.530;2023-10-09T14:57:25;18.70;99.90
13203;DHT22;6666;51.626;7.530;2023-10-09T14:59:53;18.60;99.90
13203;DHT22;6666;51.626;7.530;2023-10-09T15:02:23;18.60;99.90
13203;DHT22;6666;51.626;7.530;2023-10-09T15:04:51;18.60;99.90
13203;DHT22;6666;51.626;7.530;2023-10-09T15:07:19;18.60;99.90
13203;DHT22;6666;51.626;7.530;2023-10-09T15:10:07;18.60;99.90
13203;DHT22;6666;51.626;7.530;2023-10-09T15:12:36;18.60;99.90
13203;DHT22;6666;51.626;7.530;2023-10-09T15:15:10;18.60;99.90
13203;DHT22;6666;51.626;7.530;2023-10-09T15:17:42;18.70;99.90
13203;DHT22;6666;51.626;7.530;2023-10-09T15:20:12;18.60;99.90
13203;DHT22;6666;51.626;7.530;2023-10-09T15:22:44;18.70;99.90
13203;DHT22;6666;51.626;7.530;2023-10-09T15:25:13;18.60;99.90
13203;DHT22;6666;51.626;7.530;2023-10-09T15:27:42;18.60;99.90
13203;DHT22;6666;51.626;7.530;2023-10-09T15:30:11;18.60;99.90
13203;DHT22;6666;51.626;7.530;2023-10-09T15:32:43;18.60;99.90
13203;DHT22;6666;51.626;7.530;2023-10-09T15:35:11;18.60;99.90
13203;DHT22;6666;51.626;7.530;2023-10-09T15:37:41;18.60;99.90
13203;DHT22;6666;51.626;7.530;2023-10-09T15:40:10;18.60;99.90
13203;DHT22;6666;51.626;7.530;2023-10-09T15:42:41;18.60;99.90
13203;DHT22;6666;51.626;7.530;2023-10-09T15:45:11;18.50;99.90
13203;DHT22;6666;51.626;7.530;2023-10-09T15:47:39;18.60;99.90
13203;DHT22;6666;51.626;7.530;2023-10-09T15:50:09;18.50;99.90
13203;DHT22;6666;51.626;7.530;2023-10-09T15:52:40;18.50;99.90
13203;DHT22;6666;51.626;7.530;2023-10-09T15:55:09;18.60;99.90
13203;DHT22;6666;51.626;7.530;2023-10-09T15:57:40;18.60;99.90
13203;DHT22;6666;51.626;7.530;2023-10-09T16:00:09;18.60;99.90
13203;DHT22;6666;51.626;7.530;2023-10-09T16:02:46;18.60;99.90
13203;DHT22;6666;51.626;7.530;2023-10-09T16:05:21;18.60;99.90
13203;DHT22;6666;51.626;7.530;2023-10-09T16:07:52;18.50;99.90
13203;DHT22;6666;51.626;7.530;2023-10-09T16:10:21;18.60;99.90
13203;DHT22;6666;51.626;7.530;2023-10-09T16:12:50;18.60;99.90
13203;DHT22;6666;51.626;7.530;2023-10-09T16:15:18;18.60;99.90
13203;DHT22;6666;51.626;7.530;2023-10-09T16:17:47;18.60;99.90
13203;DHT22;6666;51.626;7.530;2023-10-09T16:20:26;18.70;99.90
13203;DHT22;6666;51.626;7.530;2023-10-09T16:22:55;18.60;99.90
13203;DHT22;6666;51.626;7.530;2023-10-09T16:25:23;18.50;99.90
13203;DHT22;6666;51.626;7.530;2023-10-09T16:27:51;18.50;99.90
13203;DHT22;6666;51.626;7.530;2023-10-09T16:30:21;18.50;99.90
13203;DHT22;6666;51.626;7.530;2023-10-09T16:32:50;18.50;99.90
13203;DHT22;6666;51.626;7.530;2023-10-09T16:35:18;18.50;99.90
13203;DHT22;6666;51.626;7.530;2023-10-09T16:37:51;18.50;99.90
13203;DHT22;6666;51.626;7.530;2023-10-09T16:40:19;18.50;99.90
13203;DHT22;6666;51.626;7.530;2023-10-09T16:42:48;18.50;99.90
13203;DHT22;6666;51.626;7.530;2023-10-09T16:45:19;18.50;99.90
13203;DHT22;6666;51.626;7.530;2023-10-09T16:47:48;18.40;99.90